This is the latest recevied weather packets stored in our database for station/object IW7DVM-13. If no packets are shown the sender has not sent any weather packets the latest 10 day(s).
| Time | Temp. | Humidity | Pressure | Rain* | Wind** | Luminosity | Snow |
|---|---|---|---|---|---|---|---|
| 1787999103 | 37.22° C | 32% | 1008.8 hPa | 0 mm | - | - | - |
| 1787998803 | 36.67° C | 33% | 1009 hPa | 0 mm | - | - | - |
| 1787998503 | 36.67° C | 34% | 1009.1 hPa | 0 mm | - | - | - |
| 1787998203 | 36.11° C | 36% | 1009 hPa | 0 mm | - | - | - |
| 1787997903 | 36.11° C | 37% | 1009 hPa | 0 mm | - | - | - |
| 1787997603 | 35.56° C | 39% | 1009 hPa | 0 mm | - | - | - |
| 1787997303 | 36.11° C | 40% | 1009.3 hPa | 0 mm | - | - | - |
| 1787997003 | 35° C | 41% | 1009.1 hPa | 0 mm | - | - | - |
| 1787996703 | 35° C | 42% | 1009.2 hPa | 0 mm | - | - | - |
| 1787996403 | 35° C | 43% | 1009.1 hPa | 0 mm | - | - | - |
| 1787996103 | 35° C | 43% | 1009.2 hPa | 0 mm | - | - | - |
| 1787995803 | 35° C | 41% | 1009.1 hPa | 0 mm | - | - | - |
| 1787995503 | 35° C | 41% | 1009.1 hPa | 0 mm | - | - | - |
| 1787995203 | 35° C | 43% | 1009.2 hPa | 0 mm | - | - | - |
| 1787994903 | 35° C | 44% | 1009.3 hPa | 0 mm | - | - | - |
| 1787994603 | 35° C | 43% | 1009.3 hPa | 0 mm | - | - | - |
| 1787994303 | 36.11° C | 38% | 1009.3 hPa | 0 mm | - | - | - |
| 1787994003 | 36.67° C | 33% | 1009.2 hPa | 0 mm | - | - | - |
| 1787993703 | 36.67° C | 36% | 1009.2 hPa | 0 mm | - | - | - |
| 1787993403 | 36.11° C | 37% | 1009.3 hPa | 0 mm | - | - | - |
| 1787993103 | 35.56° C | 39% | 1009.3 hPa | 0 mm | - | - | - |
| 1787992803 | 35.56° C | 39% | 1009.4 hPa | 0 mm | - | - | - |
| 1787992503 | 35.56° C | 39% | 1009.3 hPa | 0 mm | - | - | - |
| 1787992203 | 35° C | 41% | 1009.2 hPa | 0 mm | - | - | - |
| 1787991903 | 34.44° C | 45% | 1009.3 hPa | 0 mm | - | - | - |
* Rain latest hour (hover to see other rain measurements)
** Current wind speed in m/s (hover to see current wind gust speed)